createdAt,value
2022-07-27T00:01:59.877Z,99563.75
2022-07-27T00:04:27.699Z,99561.78
2022-07-27T00:06:55.138Z,99560.44
2022-07-27T00:09:22.521Z,99568.81
2022-07-27T00:11:50.265Z,99566.37
2022-07-27T00:14:17.690Z,99566.50
2022-07-27T00:16:45.447Z,99570.94
2022-07-27T00:19:13.441Z,99568.97
2022-07-27T00:21:44.528Z,99573.47
2022-07-27T00:24:13.805Z,99574.78
2022-07-27T00:26:41.376Z,99576.91
2022-07-27T00:29:09.249Z,99575.00
2022-07-27T00:31:37.508Z,99573.19
2022-07-27T00:34:05.045Z,99576.75
2022-07-27T00:36:32.455Z,99571.56
2022-07-27T00:39:00.128Z,99574.63
2022-07-27T00:41:27.521Z,99573.69
2022-07-27T00:43:59.376Z,99569.59
2022-07-27T00:46:28.494Z,99567.00
2022-07-27T00:48:56.080Z,99569.31
2022-07-27T00:51:23.642Z,99569.94
2022-07-27T00:53:53.373Z,99577.53
2022-07-27T00:56:21.805Z,99572.22
2022-07-27T00:58:50.698Z,99565.22
2022-07-27T01:01:19.540Z,99563.56
2022-07-27T01:03:47.949Z,99572.22
2022-07-27T01:06:16.545Z,99567.50
2022-07-27T01:09:17.597Z,99569.28
2022-07-27T01:11:46.151Z,99575.59
2022-07-27T01:14:15.950Z,99572.19
2022-07-27T01:16:43.789Z,99567.97
2022-07-27T01:19:12.628Z,99579.31
2022-07-27T01:21:40.652Z,99577.38
2022-07-27T01:24:08.248Z,99576.09
2022-07-27T01:26:36.475Z,99578.50
2022-07-27T01:29:04.533Z,99583.88
2022-07-27T01:31:32.109Z,99567.03
2022-07-27T01:33:59.709Z,99569.94
2022-07-27T01:36:27.450Z,99573.63
2022-07-27T01:38:55.023Z,99566.03
2022-07-27T01:41:22.436Z,99574.47
2022-07-27T01:43:50.133Z,99571.38
2022-07-27T01:46:17.602Z,99581.25
2022-07-27T01:48:45.213Z,99581.06
2022-07-27T01:51:12.896Z,99584.00
2022-07-27T01:53:40.356Z,99574.53
2022-07-27T01:56:11.432Z,99570.00
2022-07-27T01:58:40.203Z,99574.03
2022-07-27T02:01:08.209Z,99569.72
2022-07-27T02:03:36.260Z,99573.41
2022-07-27T02:06:04.576Z,99560.78
2022-07-27T02:08:32.346Z,99561.56
2022-07-27T02:11:18.443Z,99566.78
2022-07-27T02:13:47.466Z,99565.00
2022-07-27T02:16:17.238Z,99563.53
2022-07-27T02:18:45.931Z,99561.28
2022-07-27T02:21:16.594Z,99561.94
2022-07-27T02:23:45.157Z,99568.72
2022-07-27T02:26:12.541Z,99563.81
2022-07-27T02:28:40.194Z,99568.75
2022-07-27T02:31:07.589Z,99565.78
2022-07-27T02:33:35.033Z,99575.34
2022-07-27T02:36:03.136Z,99568.72
2022-07-27T02:38:30.561Z,99571.00
2022-07-27T02:40:58.164Z,99575.06
2022-07-27T02:43:25.822Z,99569.38
2022-07-27T02:45:53.279Z,99568.13
2022-07-27T02:48:20.711Z,99566.84
2022-07-27T02:50:48.401Z,99567.81
2022-07-27T02:53:15.824Z,99570.59
2022-07-27T02:55:43.224Z,99569.72
2022-07-27T02:58:10.906Z,99560.97
2022-07-27T03:00:38.322Z,99571.72
2022-07-27T03:03:05.729Z,99571.31
2022-07-27T03:05:33.658Z,99577.53
2022-07-27T03:08:01.191Z,99571.09
2022-07-27T03:10:28.582Z,99567.28
2022-07-27T03:12:56.314Z,99571.28
2022-07-27T03:15:24.202Z,99575.75
2022-07-27T03:17:53.590Z,99570.03
2022-07-27T03:20:21.281Z,99572.97
2022-07-27T03:22:48.678Z,99577.22
2022-07-27T03:25:16.622Z,99568.31
2022-07-27T03:27:44.282Z,99567.16
2022-07-27T03:30:11.855Z,99571.72
2022-07-27T03:32:39.230Z,99585.62
2022-07-27T03:35:07.248Z,99587.97
2022-07-27T03:37:34.793Z,99579.38
2022-07-27T03:40:02.188Z,99582.00
2022-07-27T03:42:29.875Z,99578.44
2022-07-27T03:44:57.253Z,99590.50
2022-07-27T03:47:25.090Z,99590.53
2022-07-27T03:49:52.954Z,99590.22
2022-07-27T03:52:20.833Z,99594.94
2022-07-27T03:54:48.266Z,99586.66
2022-07-27T03:57:15.960Z,99586.53
2022-07-27T03:59:43.380Z,99589.56
2022-07-27T04:02:10.842Z,99578.28
2022-07-27T04:04:38.724Z,99578.56
2022-07-27T04:07:06.190Z,99584.28
2022-07-27T04:09:34.567Z,99584.19
2022-07-27T04:12:02.243Z,99585.25
2022-07-27T04:14:30.488Z,99592.69
2022-07-27T04:16:57.903Z,99592.19
2022-07-27T04:19:25.678Z,99592.44
2022-07-27T04:21:53.070Z,99603.59
2022-07-27T04:24:20.467Z,99595.25
2022-07-27T04:26:48.219Z,99601.66
2022-07-27T04:29:20.189Z,99600.13
2022-07-27T04:31:48.877Z,99599.75
2022-07-27T04:34:16.456Z,99604.87
2022-07-27T04:36:44.758Z,99599.88
2022-07-27T04:39:12.874Z,99600.81
2022-07-27T04:41:40.541Z,99597.22
2022-07-27T04:44:08.401Z,99595.47
2022-07-27T04:46:36.116Z,99595.72
2022-07-27T04:49:03.552Z,99596.22
2022-07-27T04:51:34.542Z,99593.66
2022-07-27T04:54:02.916Z,99599.34
2022-07-27T04:56:30.303Z,99605.28
2022-07-27T04:58:57.683Z,99608.00
2022-07-27T05:01:26.747Z,99612.31
2022-07-27T05:03:56.742Z,99606.22
2022-07-27T05:06:24.219Z,99616.09
2022-07-27T05:08:51.940Z,99613.09
2022-07-27T05:11:19.340Z,99615.97
2022-07-27T05:13:46.720Z,99617.16
2022-07-27T05:16:14.481Z,99617.25
2022-07-27T05:18:42.046Z,99623.91
2022-07-27T05:21:09.786Z,99620.00
2022-07-27T05:23:40.176Z,99626.22
2022-07-27T05:26:07.681Z,99631.91
2022-07-27T05:28:35.103Z,99625.19
2022-07-27T05:31:02.758Z,99615.31
2022-07-27T05:33:30.163Z,99618.13
2022-07-27T05:35:57.795Z,99626.78
2022-07-27T05:38:25.447Z,99631.56
2022-07-27T05:40:53.364Z,99634.84
2022-07-27T05:43:20.793Z,99627.50
2022-07-27T05:45:48.595Z,99623.84
2022-07-27T05:48:16.019Z,99630.38
2022-07-27T05:50:43.819Z,99633.88
2022-07-27T05:53:11.646Z,99637.03
2022-07-27T05:55:39.050Z,99641.63
2022-07-27T05:58:27.328Z,99639.28
2022-07-27T06:00:54.836Z,99643.47
2022-07-27T06:03:23.418Z,99647.56
2022-07-27T06:05:50.885Z,99645.63
2022-07-27T06:08:18.368Z,99650.66
2022-07-27T06:10:46.109Z,99650.22
2022-07-27T06:13:13.992Z,99654.88
2022-07-27T06:15:41.503Z,99657.87
2022-07-27T06:18:15.025Z,99658.25
2022-07-27T06:20:43.254Z,99662.00
2022-07-27T06:23:11.204Z,99658.25
2022-07-27T06:25:38.712Z,99667.69
2022-07-27T06:28:06.675Z,99654.75
2022-07-27T06:30:34.628Z,99653.72
2022-07-27T06:33:06.052Z,99648.06
2022-07-27T06:35:34.831Z,99650.66
2022-07-27T06:38:05.366Z,99651.22
2022-07-27T06:40:32.852Z,99657.37
2022-07-27T06:43:00.596Z,99659.03
2022-07-27T06:45:28.078Z,99655.94
2022-07-27T06:47:55.469Z,99649.72
2022-07-27T06:50:23.483Z,99649.91
2022-07-27T06:52:51.021Z,99651.19
2022-07-27T06:55:18.499Z,99649.28
2022-07-27T06:57:46.629Z,99646.91
2022-07-27T07:00:15.091Z,99635.41
2022-07-27T07:02:58.917Z,99646.62
2022-07-27T07:05:26.796Z,99638.94
2022-07-27T07:07:54.186Z,99648.38
2022-07-27T07:10:23.775Z,99646.06
2022-07-27T07:12:57.610Z,99648.25
2022-07-27T07:15:26.540Z,99641.50
2022-07-27T07:17:54.510Z,99638.53
2022-07-27T07:20:22.419Z,99635.22
2022-07-27T07:22:50.408Z,99636.06
2022-07-27T07:25:18.119Z,99633.13
2022-07-27T07:27:45.787Z,99623.62
2022-07-27T07:30:13.437Z,99621.97
2022-07-27T07:32:41.128Z,99620.72
2022-07-27T07:35:09.234Z,99625.91
2022-07-27T07:37:36.656Z,99624.72
2022-07-27T07:40:32.155Z,99621.47
2022-07-27T07:42:56.656Z,99616.59
2022-07-27T07:45:24.956Z,99614.84
2022-07-27T07:47:52.949Z,99623.41
2022-07-27T07:50:21.160Z,99612.47
2022-07-27T07:52:49.615Z,99619.47
2022-07-27T07:55:20.588Z,99615.03
2022-07-27T07:57:50.878Z,99612.63
2022-07-27T08:00:20.813Z,99622.25
2022-07-27T08:02:50.138Z,99611.41
2022-07-27T08:05:17.674Z,99613.31
2022-07-27T08:07:45.714Z,99604.19
2022-07-27T08:10:15.023Z,99609.41
2022-07-27T08:12:45.109Z,99606.25
2022-07-27T08:15:14.132Z,99604.63
2022-07-27T08:17:42.717Z,99606.38
2022-07-27T08:20:11.260Z,99588.63
2022-07-27T08:22:39.393Z,99597.25
2022-07-27T08:25:07.390Z,99600.47
2022-07-27T08:27:40.189Z,99606.28
2022-07-27T08:30:11.693Z,99597.72
2022-07-27T08:32:58.282Z,99591.06
2022-07-27T08:35:26.093Z,99591.97
2022-07-27T08:37:54.236Z,99582.06
2022-07-27T08:43:11.148Z,99594.22
2022-07-27T08:45:38.595Z,99596.13
2022-07-27T08:48:06.396Z,99591.22
2022-07-27T08:50:35.410Z,99593.62
2022-07-27T08:53:06.000Z,99588.06
2022-07-27T08:55:42.059Z,99589.81
2022-07-27T08:58:11.694Z,99590.59
2022-07-27T09:00:42.380Z,99585.56
2022-07-27T09:03:19.495Z,99585.19
2022-07-27T09:05:55.755Z,99587.06
2022-07-27T09:08:26.373Z,99583.84
2022-07-27T09:10:55.855Z,99584.00
2022-07-27T09:13:27.235Z,99584.00
2022-07-27T09:18:43.651Z,99585.84
2022-07-27T09:21:16.969Z,99592.38
2022-07-27T09:23:50.946Z,99593.28
2022-07-27T09:26:31.907Z,99588.13
2022-07-27T09:29:07.523Z,99579.84
2022-07-27T09:31:41.845Z,99585.25
2022-07-27T09:34:09.817Z,99585.16
2022-07-27T09:36:52.160Z,99586.59
2022-07-27T09:39:21.658Z,99578.38
2022-07-27T09:41:55.379Z,99588.47
2022-07-27T09:44:42.175Z,99578.91
2022-07-27T09:47:28.961Z,99579.22
2022-07-27T09:49:59.111Z,99569.63
2022-07-27T09:52:29.626Z,99577.47
2022-07-27T09:55:05.567Z,99577.09
2022-07-27T09:57:57.312Z,99589.09
2022-07-27T10:00:25.908Z,99577.16
2022-07-27T10:02:54.999Z,99581.34
2022-07-27T10:05:23.317Z,99581.19
2022-07-27T10:07:52.853Z,99578.62
2022-07-27T10:10:21.423Z,99587.34
2022-07-27T10:12:54.003Z,99575.56
2022-07-27T10:15:25.931Z,99584.16
2022-07-27T10:18:07.367Z,99584.69
2022-07-27T10:20:38.419Z,99567.94
2022-07-27T10:23:07.496Z,99580.16
2022-07-27T10:25:37.910Z,99576.38
2022-07-27T10:28:11.585Z,99574.63
2022-07-27T10:30:39.717Z,99562.44
2022-07-27T10:33:38.024Z,99568.25
2022-07-27T10:36:16.826Z,99571.38
2022-07-27T10:38:47.160Z,99559.66
2022-07-27T10:41:22.298Z,99558.63
2022-07-27T10:43:51.460Z,99561.22
2022-07-27T10:46:21.050Z,99552.31
2022-07-27T10:48:49.421Z,99548.44
2022-07-27T10:51:17.608Z,99543.16
2022-07-27T10:56:47.173Z,99546.25
2022-07-27T10:59:15.304Z,99546.38
2022-07-27T11:01:57.413Z,99543.03
2022-07-27T11:04:25.792Z,99543.25
2022-07-27T11:10:05.861Z,99542.56
2022-07-27T11:12:33.887Z,99537.69
2022-07-27T11:15:01.686Z,99535.06
2022-07-27T11:20:23.581Z,99535.53
2022-07-27T11:23:40.673Z,99543.56
2022-07-27T11:25:38.624Z,99525.50
2022-07-27T11:28:07.583Z,99533.12
2022-07-27T11:30:35.082Z,99523.47
2022-07-27T11:33:04.674Z,99526.94
2022-07-27T11:35:32.175Z,99523.50
2022-07-27T11:38:02.318Z,99514.88
2022-07-27T11:41:12.910Z,99511.84
2022-07-27T11:43:37.168Z,99518.22
2022-07-27T11:46:15.344Z,99515.94
2022-07-27T11:49:11.840Z,99519.03
2022-07-27T11:51:41.752Z,99518.00
2022-07-27T11:54:17.829Z,99521.66
2022-07-27T11:56:49.249Z,99529.16
2022-07-27T11:59:21.946Z,99524.50
2022-07-27T12:01:54.793Z,99519.28
2022-07-27T12:04:39.638Z,99517.81
2022-07-27T12:07:20.160Z,99511.69
2022-07-27T12:09:54.613Z,99512.09
2022-07-27T12:12:26.804Z,99510.97
2022-07-27T12:14:58.960Z,99509.84
2022-07-27T12:17:27.761Z,99500.59
2022-07-27T12:19:57.025Z,99496.56
2022-07-27T12:22:28.634Z,99499.16
2022-07-27T12:24:57.707Z,99486.78
2022-07-27T12:27:29.069Z,99479.56
2022-07-27T12:29:57.861Z,99477.97
2022-07-27T12:32:26.043Z,99484.59
2022-07-27T12:34:54.919Z,99484.59
2022-07-27T12:37:22.557Z,99484.59
2022-07-27T12:39:50.490Z,99478.50
2022-07-27T12:42:17.929Z,99479.69
2022-07-27T12:44:46.512Z,99478.22
2022-07-27T12:47:32.603Z,99476.78
2022-07-27T12:50:12.226Z,99480.81
2022-07-27T12:52:53.365Z,99476.94
2022-07-27T12:55:22.502Z,99465.63
2022-07-27T12:57:57.578Z,99465.19
2022-07-27T13:00:33.595Z,99462.78
2022-07-27T13:03:02.451Z,99458.72
2022-07-27T13:05:31.696Z,99456.12
2022-07-27T13:07:59.150Z,99443.75
2022-07-27T13:10:27.585Z,99443.72
2022-07-27T13:12:55.540Z,99443.72
2022-07-27T13:15:22.964Z,99442.53
2022-07-27T13:17:50.547Z,99443.47
2022-07-27T13:20:18.524Z,99447.19
2022-07-27T13:22:46.674Z,99451.13
2022-07-27T13:25:17.230Z,99445.56
2022-07-27T13:27:46.539Z,99450.50
2022-07-27T13:30:16.187Z,99452.44
2022-07-27T13:32:44.176Z,99448.66
2022-07-27T13:35:12.697Z,99445.44
2022-07-27T13:37:40.741Z,99440.28
2022-07-27T13:40:09.837Z,99438.31
2022-07-27T13:42:37.886Z,99424.22
2022-07-27T13:45:10.466Z,99431.97
2022-07-27T13:47:40.347Z,99431.25
2022-07-27T13:50:13.642Z,99423.34
2022-07-27T13:52:46.619Z,99424.47
2022-07-27T13:55:15.888Z,99420.72
2022-07-27T13:57:43.780Z,99422.63
2022-07-27T14:00:11.985Z,99413.78
2022-07-27T14:02:39.973Z,99412.72
2022-07-27T14:05:12.321Z,99418.25
2022-07-27T14:07:43.116Z,99415.28
2022-07-27T14:10:30.888Z,99408.03
2022-07-27T14:13:07.713Z,99402.75
2022-07-27T14:15:53.700Z,99404.19
2022-07-27T14:18:25.062Z,99406.72
2022-07-27T14:20:53.065Z,99407.31
2022-07-27T14:23:21.086Z,99398.97
2022-07-27T14:25:48.865Z,99394.94
2022-07-27T14:28:16.763Z,99394.31
2022-07-27T14:30:45.063Z,99383.44
2022-07-27T14:33:12.705Z,99388.59
2022-07-27T14:35:41.042Z,99379.16
2022-07-27T14:38:09.594Z,99388.94
2022-07-27T14:40:38.342Z,99381.22
2022-07-27T14:43:06.309Z,99387.66
2022-07-27T14:45:44.092Z,99378.28
2022-07-27T14:48:21.455Z,99379.16
2022-07-27T14:50:52.674Z,99379.06
2022-07-27T14:53:20.327Z,99377.03
2022-07-27T14:55:47.728Z,99371.88
2022-07-27T14:58:15.126Z,99368.63
2022-07-27T15:00:43.065Z,99372.38
2022-07-27T15:03:14.847Z,99373.97
2022-07-27T15:05:49.957Z,99370.75
2022-07-27T15:08:20.096Z,99373.19
2022-07-27T15:10:48.985Z,99370.72
2022-07-27T15:13:17.958Z,99367.97
2022-07-27T15:15:48.598Z,99372.66
2022-07-27T15:18:18.889Z,99364.62
2022-07-27T15:20:47.776Z,99370.66
2022-07-27T15:23:15.697Z,99367.19
2022-07-27T15:25:43.339Z,99359.56
2022-07-27T15:28:10.979Z,99364.75
2022-07-27T15:30:38.975Z,99361.16
2022-07-27T15:33:07.456Z,99363.13
2022-07-27T15:35:34.922Z,99362.78
2022-07-27T15:38:02.337Z,99357.97
2022-07-27T15:40:41.548Z,99355.53
2022-07-27T15:43:12.138Z,99353.94
2022-07-27T15:45:41.078Z,99354.34
2022-07-27T15:48:10.004Z,99353.94
2022-07-27T15:50:39.262Z,99351.13
2022-07-27T15:53:07.744Z,99364.66
2022-07-27T15:55:37.490Z,99363.38
2022-07-27T15:58:06.405Z,99361.09
2022-07-27T16:00:39.485Z,99352.59
2022-07-27T16:03:10.589Z,99361.81
2022-07-27T16:05:39.277Z,99359.81
2022-07-27T16:08:09.801Z,99364.59
2022-07-27T16:10:39.261Z,99365.50
2022-07-27T16:13:07.906Z,99365.94
2022-07-27T16:15:54.629Z,99369.09
2022-07-27T16:18:22.544Z,99361.13
2022-07-27T16:20:50.877Z,99373.50
2022-07-27T16:23:21.653Z,99371.09
2022-07-27T16:26:04.130Z,99374.78
2022-07-27T16:28:35.180Z,99368.78
2022-07-27T16:31:05.004Z,99380.34
2022-07-27T16:33:32.742Z,99384.75
2022-07-27T16:36:00.206Z,99383.59
2022-07-27T16:38:28.334Z,99381.97
2022-07-27T16:40:55.744Z,99383.59
2022-07-27T16:43:23.235Z,99388.72
2022-07-27T16:46:04.306Z,99389.22
2022-07-27T16:48:38.661Z,99381.22
2022-07-27T16:51:14.711Z,99385.16
2022-07-27T16:53:44.196Z,99385.94
2022-07-27T16:56:12.102Z,99386.34
2022-07-27T16:58:39.760Z,99388.28
2022-07-27T17:01:08.229Z,99377.38
2022-07-27T17:03:36.769Z,99396.28
2022-07-27T17:06:06.542Z,99384.75
2022-07-27T17:08:36.273Z,99391.87
2022-07-27T17:11:06.090Z,99393.50
2022-07-27T17:13:35.083Z,99392.97
2022-07-27T17:16:06.740Z,99399.13
2022-07-27T17:18:39.837Z,99395.91
2022-07-27T17:21:12.474Z,99405.47
2022-07-27T17:23:41.725Z,99412.81
2022-07-27T17:26:10.046Z,99423.94
2022-07-27T17:28:39.689Z,99431.34
2022-07-27T17:31:10.130Z,99430.03
2022-07-27T17:33:39.186Z,99432.84
2022-07-27T17:36:14.037Z,99435.16
2022-07-27T17:38:46.847Z,99435.25
2022-07-27T17:41:19.228Z,99439.44
2022-07-27T17:43:52.056Z,99437.22
2022-07-27T17:46:19.896Z,99438.38
2022-07-27T17:48:47.403Z,99435.56
2022-07-27T17:51:14.849Z,99436.63
2022-07-27T17:53:43.619Z,99433.19
2022-07-27T17:56:11.254Z,99434.09
2022-07-27T17:58:39.341Z,99435.13
2022-07-27T18:01:08.842Z,99436.47
2022-07-27T18:03:37.054Z,99442.28
2022-07-27T18:06:04.786Z,99445.88
2022-07-27T18:08:32.397Z,99436.84
2022-07-27T18:11:00.116Z,99445.50
2022-07-27T18:13:39.424Z,99437.41
2022-07-27T18:16:12.069Z,99447.63
2022-07-27T18:18:41.331Z,99441.88
2022-07-27T18:21:09.458Z,99443.69
2022-07-27T18:23:36.859Z,99446.94
2022-07-27T18:26:04.316Z,99444.84
2022-07-27T18:28:39.154Z,99458.13
2022-07-27T18:31:08.545Z,99452.22
2022-07-27T18:33:37.017Z,99453.88
2022-07-27T18:36:05.324Z,99468.41
2022-07-27T18:38:32.766Z,99468.31
2022-07-27T18:41:00.458Z,99474.09
2022-07-27T18:43:27.841Z,99480.94
2022-07-27T18:45:55.425Z,99484.63
2022-07-27T18:48:23.141Z,99484.47
2022-07-27T18:50:51.948Z,99494.75
2022-07-27T18:53:19.377Z,99498.53
2022-07-27T18:55:47.105Z,99485.41
2022-07-27T18:58:14.676Z,99493.97
2022-07-27T19:00:42.687Z,99499.78
2022-07-27T19:03:11.047Z,99502.12
2022-07-27T19:05:41.347Z,99503.91
2022-07-27T19:08:13.318Z,99512.63
2022-07-27T19:10:42.469Z,99511.88
2022-07-27T19:13:11.269Z,99510.84
2022-07-27T19:15:39.663Z,99515.31
2022-07-27T19:18:07.864Z,99523.22
2022-07-27T19:20:36.782Z,99522.94
2022-07-27T19:23:05.847Z,99533.06
2022-07-27T19:25:34.005Z,99540.22
2022-07-27T19:28:03.764Z,99544.81
2022-07-27T19:30:31.401Z,99550.66
2022-07-27T19:32:58.860Z,99553.16
2022-07-27T19:35:26.835Z,99552.13
2022-07-27T19:37:54.238Z,99556.75
2022-07-27T19:43:09.442Z,99557.16
2022-07-27T19:45:36.978Z,99569.09
2022-07-27T19:48:05.684Z,99561.09
2022-07-27T19:50:33.813Z,99569.06
2022-07-27T19:53:02.167Z,99570.59
2022-07-27T19:55:29.613Z,99572.47
2022-07-27T19:57:57.398Z,99574.41
2022-07-27T20:00:24.807Z,99584.44
2022-07-27T20:02:52.550Z,99586.03
2022-07-27T20:05:20.067Z,99590.25
2022-07-27T20:07:47.456Z,99603.19
2022-07-27T20:10:15.628Z,99597.34
2022-07-27T20:12:43.094Z,99605.97
2022-07-27T20:15:10.841Z,99599.59
2022-07-27T20:17:40.413Z,99609.81
2022-07-27T20:20:09.744Z,99605.88
2022-07-27T20:22:39.268Z,99610.25
2022-07-27T20:25:09.923Z,99606.41
2022-07-27T20:27:38.009Z,99598.03
2022-07-27T20:30:05.850Z,99601.72
2022-07-27T20:32:33.782Z,99605.53
2022-07-27T20:35:01.489Z,99606.59
2022-07-27T20:37:28.900Z,99597.50
2022-07-27T20:39:56.559Z,99605.88
2022-07-27T20:42:24.002Z,99602.50
2022-07-27T20:44:51.431Z,99605.91
2022-07-27T20:47:19.107Z,99607.66
2022-07-27T20:49:46.492Z,99600.53
2022-07-27T20:52:14.035Z,99603.38
2022-07-27T20:54:41.930Z,99596.13
2022-07-27T20:57:09.349Z,99597.50
2022-07-27T20:59:36.903Z,99600.47
2022-07-27T21:02:05.207Z,99600.59
2022-07-27T21:04:32.658Z,99599.16
2022-07-27T21:07:00.072Z,99595.25
2022-07-27T21:09:27.762Z,99601.16
2022-07-27T21:11:55.157Z,99601.56
2022-07-27T21:14:22.543Z,99596.84
2022-07-27T21:16:50.592Z,99608.28
2022-07-27T21:19:20.883Z,99617.12
2022-07-27T21:21:48.522Z,99620.78
2022-07-27T21:24:17.531Z,99632.69
2022-07-27T21:26:48.615Z,99640.25
2022-07-27T21:29:17.295Z,99630.63
2022-07-27T21:31:48.150Z,99625.78
2022-07-27T21:34:19.414Z,99642.53
2022-07-27T21:36:47.674Z,99639.66
2022-07-27T21:39:15.154Z,99642.44
2022-07-27T21:41:43.850Z,99645.19
2022-07-27T21:44:11.651Z,99650.63
2022-07-27T21:46:39.392Z,99646.94
2022-07-27T21:49:07.246Z,99650.97
2022-07-27T21:51:34.713Z,99646.38
2022-07-27T21:54:02.191Z,99653.75
2022-07-27T21:56:29.874Z,99649.84
2022-07-27T21:58:57.820Z,99652.44
2022-07-27T22:01:25.636Z,99642.25
2022-07-27T22:03:53.461Z,99645.47
2022-07-27T22:06:21.001Z,99651.56
2022-07-27T22:08:48.864Z,99647.47
2022-07-27T22:11:16.526Z,99651.91
2022-07-27T22:13:43.990Z,99655.38
2022-07-27T22:16:13.293Z,99658.97
2022-07-27T22:18:41.043Z,99658.25
2022-07-27T22:21:08.856Z,99660.84
2022-07-27T22:23:36.273Z,99655.19
2022-07-27T22:26:03.937Z,99655.91
2022-07-27T22:28:31.375Z,99663.28
2022-07-27T22:30:59.682Z,99662.56
2022-07-27T22:33:46.446Z,99664.28
2022-07-27T22:36:13.945Z,99667.53
2022-07-27T22:38:41.403Z,99664.28
2022-07-27T22:41:09.059Z,99657.13
2022-07-27T22:43:36.536Z,99659.63
2022-07-27T22:46:04.851Z,99657.69
2022-07-27T22:48:32.875Z,99652.00
2022-07-27T22:51:00.325Z,99650.44
2022-07-27T22:53:27.736Z,99648.03
2022-07-27T22:55:55.519Z,99646.28
2022-07-27T22:58:23.031Z,99638.72
2022-07-27T23:00:50.716Z,99639.88
2022-07-27T23:03:20.207Z,99641.72
2022-07-27T23:05:47.685Z,99646.38
2022-07-27T23:08:15.146Z,99648.09
2022-07-27T23:10:48.698Z,99652.63
2022-07-27T23:13:34.846Z,99654.81
2022-07-27T23:16:02.624Z,99647.16
2022-07-27T23:18:30.015Z,99640.25
2022-07-27T23:20:57.398Z,99640.81
2022-07-27T23:23:27.688Z,99642.87
2022-07-27T23:25:55.257Z,99652.28
2022-07-27T23:28:22.659Z,99649.47
2022-07-27T23:30:51.513Z,99644.53
2022-07-27T23:33:18.959Z,99645.44
2022-07-27T23:35:46.380Z,99642.19
2022-07-27T23:38:14.055Z,99652.41
2022-07-27T23:40:41.450Z,99661.62
2022-07-27T23:43:08.864Z,99664.16
2022-07-27T23:45:36.586Z,99655.03
2022-07-27T23:48:04.046Z,99656.19
2022-07-27T23:50:31.424Z,99654.81
2022-07-27T23:52:59.063Z,99651.22
2022-07-27T23:55:26.891Z,99645.56
2022-07-27T23:57:55.011Z,99651.94
